Home > Products > Valid Products > TAF

000
FTUS43 KGRB 211100
TAFGRB
TAF
KGRB 211123Z 2112/2212 01009KT P6SM BKN020
     FM211600 03012G18KT P6SM SCT025
     FM212300 05007KT P6SM SKC=



000
FTUS43 KGRB 211100
TAFGRB
TAF
KGRB 211123Z 2112/2212 01009KT P6SM BKN020
     FM211600 03012G18KT P6SM SCT025
     FM212300 05007KT P6SM SKC=



000
FTUS43 KGRB 211100
TAFGRB
TAF
KGRB 211123Z 2112/2212 01009KT P6SM BKN020
     FM211600 03012G18KT P6SM SCT025
     FM212300 05007KT P6SM SKC=



000
FTUS43 KGRB 211100
TAFGRB
TAF
KGRB 211123Z 2112/2212 01009KT P6SM BKN020
     FM211600 03012G18KT P6SM SCT025
     FM212300 05007KT P6SM SKC=



000
FTUS43 KGRB 210800 AAA
TAFGRB
TAF AMD
KGRB 210818Z 2108/2206 35008KT P6SM VCSH BKN025 BKN050
     FM211600 03012KT P6SM SCT025
     FM212300 05007KT P6SM SKC=



000
FTUS43 KGRB 210800 AAA
TAFGRB
TAF AMD
KGRB 210818Z 2108/2206 35008KT P6SM VCSH BKN025 BKN050
     FM211600 03012KT P6SM SCT025
     FM212300 05007KT P6SM SKC=



000
FTUS43 KGRB 210500
TAFGRB
TAF
KGRB 210525Z 2106/2206 35008KT P6SM VCSH BKN050
     FM211000 35009KT P6SM SCT018 BKN040
     FM211600 03012KT P6SM SCT040
     FM212300 05007KT P6SM SKC=



000
FTUS43 KGRB 210500
TAFGRB
TAF
KGRB 210525Z 2106/2206 35008KT P6SM VCSH BKN050
     FM211000 35009KT P6SM SCT018 BKN040
     FM211600 03012KT P6SM SCT040
     FM212300 05007KT P6SM SKC=



000
FTUS43 KGRB 202300
TAFGRB
TAF
KGRB 202337Z 2100/2124 32010G14KT P6SM VCSH SCT030 BKN050
      TEMPO 2100/2103 5SM -RA BKN025
     FM210400 35005KT P6SM SCT020 BKN040
     FM210900 36009KT P6SM BKN022
     FM211400 01012KT P6SM BKN028
     FM211800 03012KT P6SM SCT030=



000
FTUS43 KGRB 202300
TAFGRB
TAF
KGRB 202337Z 2100/2124 32010G14KT P6SM VCSH SCT030 BKN050
      TEMPO 2100/2103 5SM -RA BKN025
     FM210400 35005KT P6SM SCT020 BKN040
     FM210900 36009KT P6SM BKN022
     FM211400 01012KT P6SM BKN028
     FM211800 03012KT P6SM SCT030=



000
FTUS43 KGRB 201700
TAFGRB
TAF
KGRB 201725Z 2018/2118 32010G17KT P6SM OVC050
     FM210300 35008KT P6SM SCT040
     FM210600 36009KT P6SM BKN022
     FM211400 01012KT P6SM BKN028
      TEMPO 2116/2118 SCT028=



000
FTUS43 KGRB 201100
TAFGRB
TAF
KGRB 201138Z 2012/2112 29007KT P6SM SCT035 BKN060
     FM201700 32010G17KT P6SM BKN035
     FM210200 35008KT P6SM SCT040
     FM210600 36009KT P6SM BKN022=



000
FTUS43 KGRB 201100
TAFGRB
TAF
KGRB 201138Z 2012/2112 29007KT P6SM SCT035 BKN060
     FM201700 32010G17KT P6SM BKN035
     FM210200 35008KT P6SM SCT040
     FM210600 36009KT P6SM BKN022=



000
FTUS43 KGRB 201000 AAB
TAFGRB
TAF AMD
KGRB 201032Z 2011/2106 27003KT P6SM FEW050 SCT100
      TEMPO 2011/2013 5SM BR
     FM201300 31007KT P6SM SCT035 BKN060
     FM201700 32010G15KT P6SM VCSH BKN030 BKN040
     FM210000 35008KT P6SM BKN040=



000
FTUS43 KGRB 201000 AAB
TAFGRB
TAF AMD
KGRB 201032Z 2011/2106 27003KT P6SM FEW050 SCT100
      TEMPO 2011/2013 5SM BR
     FM201300 31007KT P6SM SCT035 BKN060
     FM201700 32010G15KT P6SM VCSH BKN030 BKN040
     FM210000 35008KT P6SM BKN040=



000
FTUS43 KGRB 200900 AAA
TAFGRB
TAF AMD
KGRB 200916Z 2009/2106 27003KT P6SM FEW050 SCT100
      TEMPO 2011/2013 5SM BR
     FM201500 31007KT P6SM SCT030 BKN050
     FM201700 32010G15KT P6SM VCSH BKN030 BKN040
     FM210000 35008KT P6SM BKN040=



000
FTUS43 KGRB 200900 AAA
TAFGRB
TAF AMD
KGRB 200916Z 2009/2106 27003KT P6SM FEW050 SCT100
      TEMPO 2011/2013 5SM BR
     FM201500 31007KT P6SM SCT030 BKN050
     FM201700 32010G15KT P6SM VCSH BKN030 BKN040
     FM210000 35008KT P6SM BKN040=



000
FTUS43 KGRB 200500
TAFGRB
TAF
KGRB 200535Z 2006/2106 22005KT P6SM SCT030 SCT100
     FM200900 27003KT P6SM FEW050 FEW100
      TEMPO 2009/2013 3SM BR BKN050
     FM201400 31007KT P6SM SCT030 BKN050
     FM201700 32010G15KT P6SM VCSH BKN030 BKN040
     FM210000 35008KT P6SM BKN040=



000
FTUS43 KGRB 200500
TAFGRB
TAF
KGRB 200535Z 2006/2106 22005KT P6SM SCT030 SCT100
     FM200900 27003KT P6SM FEW050 FEW100
      TEMPO 2009/2013 3SM BR BKN050
     FM201400 31007KT P6SM SCT030 BKN050
     FM201700 32010G15KT P6SM VCSH BKN030 BKN040
     FM210000 35008KT P6SM BKN040=



000
FTUS43 KGRB 192300
TAFGRB
TAF
KGRB 192335Z 2000/2024 21009KT P6SM SCT030 BKN100
     FM200300 22005KT P6SM SCT030 SCT100
     FM200700 27006KT P6SM FEW050 FEW100
     FM201400 31007KT P6SM SCT030 BKN050
     FM201700 32010G15KT P6SM VCSH BKN030 BKN040=



000
FTUS43 KGRB 192300
TAFGRB
TAF
KGRB 192335Z 2000/2024 21009KT P6SM SCT030 BKN100
     FM200300 22005KT P6SM SCT030 SCT100
     FM200700 27006KT P6SM FEW050 FEW100
     FM201400 31007KT P6SM SCT030 BKN050
     FM201700 32010G15KT P6SM VCSH BKN030 BKN040=



000
FTUS43 KGRB 192300
TAFGRB
TAF
KGRB 192335Z 2000/2024 21009KT P6SM SCT030 BKN100
     FM200300 22005KT P6SM SCT030 SCT100
     FM200700 27006KT P6SM FEW050 FEW100
     FM201400 31007KT P6SM SCT030 BKN050
     FM201700 32010G15KT P6SM VCSH BKN030 BKN040=



000
FTUS43 KGRB 192300
TAFGRB
TAF
KGRB 192335Z 2000/2024 21009KT P6SM SCT030 BKN100
     FM200300 22005KT P6SM SCT030 SCT100
     FM200700 27006KT P6SM FEW050 FEW100
     FM201400 31007KT P6SM SCT030 BKN050
     FM201700 32010G15KT P6SM VCSH BKN030 BKN040=



000
FTUS43 KGRB 191700
TAFGRB
TAF
KGRB 191732Z 1918/2018 21010G16KT P6SM BKN100
     FM200100 22005KT P6SM SCT050 BKN090
     FM200900 29006KT P6SM BKN035 BKN080
     FM201300 32011KT P6SM BKN040=



000
FTUS43 KGRB 191700
TAFGRB
TAF
KGRB 191732Z 1918/2018 21010G16KT P6SM BKN100
     FM200100 22005KT P6SM SCT050 BKN090
     FM200900 29006KT P6SM BKN035 BKN080
     FM201300 32011KT P6SM BKN040=



000
FTUS43 KGRB 191100
TAFGRB
TAF
KGRB 191125Z 1912/2012 19003KT P6SM BKN250
     FM191600 21009KT P6SM SCT100 BKN200
     FM191900 21010G19KT P6SM BKN090 OVC150
     FM200100 22005KT P6SM SCT090 BKN250
     FM200900 29006KT P6SM SCT045 BKN090=



000
FTUS43 KGRB 191100
TAFGRB
TAF
KGRB 191125Z 1912/2012 19003KT P6SM BKN250
     FM191600 21009KT P6SM SCT100 BKN200
     FM191900 21010G19KT P6SM BKN090 OVC150
     FM200100 22005KT P6SM SCT090 BKN250
     FM200900 29006KT P6SM SCT045 BKN090=



000
FTUS43 KGRB 190500
TAFGRB
TAF
KGRB 190520Z 1906/2006 VRB03KT P6SM SCT200
     FM191300 19003KT P6SM BKN200
     FM191600 21007KT P6SM SCT080 BKN150
     FM191900 21009G14KT P6SM VCSH BKN080 OVC150
     FM200000 22005KT P6SM BKN090 BKN200=



000
FTUS43 KGRB 190500
TAFGRB
TAF
KGRB 190520Z 1906/2006 VRB03KT P6SM SCT200
     FM191300 19003KT P6SM BKN200
     FM191600 21007KT P6SM SCT080 BKN150
     FM191900 21009G14KT P6SM VCSH BKN080 OVC150
     FM200000 22005KT P6SM BKN090 BKN200=



000
FTUS43 KGRB 182300
TAFGRB
TAF
KGRB 182338Z 1900/1924 35005KT P6SM SKC
     FM191300 19003KT P6SM BKN200
     FM191600 21007KT P6SM SCT080 BKN150
     FM191900 21009G15KT P6SM VCSH BKN080 OVC150=



000
FTUS43 KGRB 182300
TAFGRB
TAF
KGRB 182338Z 1900/1924 35005KT P6SM SKC
     FM191300 19003KT P6SM BKN200
     FM191600 21007KT P6SM SCT080 BKN150
     FM191900 21009G15KT P6SM VCSH BKN080 OVC150=



000
FTUS43 KGRB 181700
TAFGRB
TAF
KGRB 181729Z 1818/1918 35012G17KT P6SM FEW035
     FM182200 36004KT P6SM SKC
     FM191300 19003KT P6SM SCT030 BKN200
     FM191600 21009KT P6SM BKN035 OVC070=



000
FTUS43 KGRB 181700
TAFGRB
TAF
KGRB 181729Z 1818/1918 35012G17KT P6SM FEW035
     FM182200 36004KT P6SM SKC
     FM191300 19003KT P6SM SCT030 BKN200
     FM191600 21009KT P6SM BKN035 OVC070=



    US Dept of Commerce
    National Oceanic and Atmospheric Administration
    National Weather Service
    1325 East West Highway
    Silver Spring, MD 20910
    Page Author: NWS Internet Services Team
Disclaimer
Information Quality
Credits
Glossary
Privacy Policy
Freedom of Information Act (FOIA)
About Us
Career Opportunities